Time;durP1;ratioP1;P1;durP2;ratioP2;P2;SDS_P1;SDS_P2;PMS_P1;PMS_P2;Temp;Humidity;BMP_temperature;BMP_pressure;BME280_temperature;BME280_humidity;BME280_pressure;Samples;Min_cycle;Max_cycle;Signal;HPM_P1;HPM_P2
2023/08/10 00:01:13;;;;;;;46.88;20.42;;;;;;;;;;8268341;28;20054;-89
2023/08/10 00:05:16;;;;;;;46.65;17.17;;;;;;;;;;8276096;28;20591;-88
2023/08/10 00:09:23;;;;;;;50.65;16.73;;;;;;;;;;8266548;28;20103;-88
2023/08/10 00:13:26;;;;;;;44.55;17.20;;;;;;;;;;8276069;28;20553;-87
2023/08/10 00:17:29;;;;;;;40.83;16.88;;;;;;;;;;8283223;28;20096;-88
2023/08/10 00:21:32;;;;;;;34.35;14.82;;;;;;;;;;8296041;28;20490;-87
2023/08/10 00:25:37;;;;;;;37.47;15.23;;;;;;;;;;8268296;28;20072;-88
2023/08/10 00:29:40;;;;;;;37.83;15.82;;;;;;;;;;8283520;28;20140;-89
2023/08/10 00:33:43;;;;;;;42.55;16.15;;;;;;;;;;8274685;28;20068;-88
2023/08/10 00:37:48;;;;;;;41.25;17.52;;;;;;;;;;8281546;28;20149;-89
2023/08/10 00:41:53;;;;;;;42.25;16.45;;;;;;;;;;8300297;28;20160;-88
2023/08/10 00:45:57;;;;;;;35.35;17.85;;;;;;;;;;8268703;28;20145;-89
2023/08/10 00:50:01;;;;;;;38.63;17.85;;;;;;;;;;8281087;28;20618;-90
2023/08/10 00:54:07;;;;;;;39.72;18.75;;;;;;;;;;8256144;28;20050;-87
2023/08/10 01:02:41;;;;;;;34.30;18.08;;;;;;;;;;8280452;28;20058;-88
2023/08/10 01:06:50;;;;;;;31.65;17.85;;;;;;;;;;8280272;28;20084;-89
2023/08/10 01:11:03;;;;;;;27.77;16.77;;;;;;;;;;8331489;23;20407;-88
2023/08/10 01:15:16;;;;;;;31.77;16.92;;;;;;;;;;8271138;28;20088;-89
2023/08/10 01:19:27;;;;;;;29.48;17.00;;;;;;;;;;8298734;28;20045;-88
2023/08/10 01:23:36;;;;;;;34.00;16.93;;;;;;;;;;8258900;28;20037;-88
2023/08/10 01:27:41;;;;;;;32.95;18.50;;;;;;;;;;8285984;28;20418;-88
2023/08/10 01:31:44;;;;;;;31.10;18.45;;;;;;;;;;8257203;28;20086;-88
2023/08/10 01:35:47;;;;;;;33.40;19.08;;;;;;;;;;8270865;28;20469;-88
2023/08/10 01:39:51;;;;;;;36.40;19.88;;;;;;;;;;8379379;23;20158;-87
2023/08/10 01:43:55;;;;;;;36.70;19.55;;;;;;;;;;8267912;28;20038;-88
2023/08/10 01:48:03;;;;;;;37.25;20.40;;;;;;;;;;8267815;28;20050;-90
2023/08/10 01:52:10;;;;;;;34.78;19.55;;;;;;;;;;8282462;28;20043;-88
2023/08/10 01:56:13;;;;;;;36.53;19.83;;;;;;;;;;8267681;28;20073;-87
2023/08/10 02:00:21;;;;;;;37.00;20.15;;;;;;;;;;8282246;28;20081;-90
2023/08/10 02:04:24;;;;;;;31.48;18.02;;;;;;;;;;8299122;28;20427;-90
2023/08/10 02:08:27;;;;;;;30.95;17.90;;;;;;;;;;8372163;23;20074;-92
2023/08/10 02:12:30;;;;;;;29.95;17.85;;;;;;;;;;8218901;28;20137;-91
2023/08/10 02:16:35;;;;;;;34.38;20.10;;;;;;;;;;8389587;23;20058;-89
2023/08/10 02:20:38;;;;;;;30.25;18.85;;;;;;;;;;8267138;28;20084;-90
2023/08/10 02:24:42;;;;;;;37.53;20.27;;;;;;;;;;8259714;28;20177;-88
2023/08/10 02:28:45;;;;;;;33.40;18.70;;;;;;;;;;8280202;28;20474;-88
2023/08/10 02:32:52;;;;;;;37.22;18.92;;;;;;;;;;8264378;28;20053;-88
2023/08/10 02:36:55;;;;;;;31.58;18.17;;;;;;;;;;8306096;28;20033;-88
2023/08/10 02:40:58;;;;;;;31.70;18.40;;;;;;;;;;8302673;28;20061;-88
2023/08/10 02:45:02;;;;;;;30.55;17.25;;;;;;;;;;8320030;28;20077;-88
2023/08/10 02:49:06;;;;;;;35.45;19.20;;;;;;;;;;8332617;28;20042;-87
2023/08/10 02:53:09;;;;;;;40.13;22.38;;;;;;;;;;8327866;28;20048;-88
2023/08/10 02:57:12;;;;;;;35.53;20.80;;;;;;;;;;8318346;28;20049;-88
2023/08/10 03:01:16;;;;;;;42.25;21.17;;;;;;;;;;8295792;28;20057;-89
2023/08/10 03:05:23;;;;;;;39.38;21.85;;;;;;;;;;8300778;28;20045;-87
2023/08/10 03:09:27;;;;;;;39.30;19.45;;;;;;;;;;8257256;28;20409;-87
2023/08/10 03:13:30;;;;;;;33.63;17.67;;;;;;;;;;8282228;28;20074;-87
2023/08/10 03:17:34;;;;;;;36.70;20.05;;;;;;;;;;8281778;28;20597;-89
2023/08/10 03:21:40;;;;;;;36.75;20.40;;;;;;;;;;8281135;28;20500;-91
2023/08/10 03:25:44;;;;;;;35.22;17.60;;;;;;;;;;8268516;28;20083;-91
2023/08/10 03:29:47;;;;;;;38.15;18.10;;;;;;;;;;8278062;28;20054;-88
2023/08/10 03:33:50;;;;;;;33.60;17.55;;;;;;;;;;8280389;28;20496;-87
2023/08/10 03:37:55;;;;;;;38.30;18.85;;;;;;;;;;8296710;28;20149;-88
2023/08/10 03:41:58;;;;;;;32.58;18.10;;;;;;;;;;8280507;28;20594;-87
2023/08/10 03:46:05;;;;;;;31.20;17.48;;;;;;;;;;8277846;28;20050;-88
2023/08/10 03:50:11;;;;;;;48.08;18.98;;;;;;;;;;8297076;28;20057;-87
2023/08/10 03:54:16;;;;;;;32.30;16.88;;;;;;;;;;8265144;28;20108;-89
2023/08/10 03:58:20;;;;;;;34.80;16.50;;;;;;;;;;8272257;28;20129;-89
2023/08/10 04:02:23;;;;;;;33.67;17.60;;;;;;;;;;8278868;28;20073;-90
2023/08/10 04:06:27;;;;;;;32.28;16.58;;;;;;;;;;8275994;28;20053;-88
2023/08/10 04:10:36;;;;;;;36.55;16.70;;;;;;;;;;8287317;28;20077;-89
2023/08/10 04:14:42;;;;;;;28.48;15.82;;;;;;;;;;8284824;28;20422;-89
2023/08/10 04:25:20;;;;;;;31.58;15.57;;;;;;;;;;8170307;29;20578;-87
2023/08/10 04:29:27;;;;;;;29.73;15.27;;;;;;;;;;8170445;29;20047;-87
2023/08/10 04:33:31;;;;;;;25.05;13.95;;;;;;;;;;8230694;28;20197;-87
2023/08/10 04:37:35;;;;;;;26.85;14.07;;;;;;;;;;8244161;28;20201;-88
2023/08/10 04:41:38;;;;;;;23.73;14.68;;;;;;;;;;8249515;28;20106;-87
2023/08/10 04:45:46;;;;;;;23.63;12.88;;;;;;;;;;8239519;28;20058;-87
2023/08/10 04:49:50;;;;;;;24.73;12.88;;;;;;;;;;8249228;28;20491;-87
2023/08/10 04:53:53;;;;;;;21.27;13.00;;;;;;;;;;8350339;23;20459;-91
2023/08/10 04:57:57;;;;;;;23.83;13.98;;;;;;;;;;8301192;28;20046;-88
2023/08/10 05:02:01;;;;;;;22.63;12.60;;;;;;;;;;8288941;28;20092;-90
2023/08/10 05:06:05;;;;;;;21.25;12.32;;;;;;;;;;8287852;28;20052;-89
2023/08/10 05:10:32;;;;;;;21.40;12.90;;;;;;;;;;8174000;29;20628;-88
2023/08/10 05:14:35;;;;;;;21.45;12.52;;;;;;;;;;8265094;28;20053;-88
2023/08/10 05:18:43;;;;;;;23.92;12.52;;;;;;;;;;8275226;28;20077;-88
2023/08/10 05:22:46;;;;;;;19.98;11.57;;;;;;;;;;8283212;28;20062;-89
2023/08/10 05:26:49;;;;;;;20.75;12.75;;;;;;;;;;8276891;28;20056;-91
2023/08/10 05:30:53;;;;;;;24.45;13.50;;;;;;;;;;8283353;28;20520;-90
2023/08/10 05:34:58;;;;;;;23.80;14.00;;;;;;;;;;8275973;28;20057;-88
2023/08/10 05:39:03;;;;;;;23.15;14.05;;;;;;;;;;8283033;28;20173;-88
2023/08/10 05:43:06;;;;;;;26.13;13.48;;;;;;;;;;8273783;28;20258;-89
2023/08/10 05:47:10;;;;;;;24.33;13.90;;;;;;;;;;8267997;28;20372;-90
2023/08/10 05:51:15;;;;;;;23.40;13.73;;;;;;;;;;8267289;28;20073;-88
2023/08/10 05:55:19;;;;;;;22.73;13.13;;;;;;;;;;8313024;28;20108;-88
2023/08/10 05:59:22;;;;;;;20.55;11.65;;;;;;;;;;8306241;28;20078;-88
2023/08/10 06:03:26;;;;;;;21.05;12.95;;;;;;;;;;8312733;28;20067;-88
2023/08/10 06:07:33;;;;;;;27.13;14.23;;;;;;;;;;8302363;28;20481;-88
2023/08/10 06:11:36;;;;;;;23.05;14.13;;;;;;;;;;8309767;28;20049;-88
2023/08/10 06:15:40;;;;;;;16.77;11.93;;;;;;;;;;8291135;28;20077;-92
2023/08/10 06:19:53;;;;;;;19.92;11.60;;;;;;;;;;8281522;28;20098;-90
2023/08/10 06:24:01;;;;;;;16.50;11.65;;;;;;;;;;8300257;28;20073;-88
2023/08/10 06:28:06;;;;;;;17.65;12.48;;;;;;;;;;8317672;28;20053;-88
2023/08/10 06:32:10;;;;;;;17.52;12.15;;;;;;;;;;8324619;28;20049;-88
2023/08/10 06:36:13;;;;;;;17.75;12.35;;;;;;;;;;8308491;28;20050;-88
2023/08/10 06:40:21;;;;;;;20.80;12.07;;;;;;;;;;8301921;28;20152;-90
2023/08/10 06:44:25;;;;;;;15.02;9.75;;;;;;;;;;8287220;28;20050;-88
2023/08/10 06:48:28;;;;;;;14.52;10.20;;;;;;;;;;8310230;28;20064;-88
2023/08/10 06:52:33;;;;;;;15.45;10.57;;;;;;;;;;8318486;28;20143;-87
2023/08/10 06:56:41;;;;;;;15.57;11.52;;;;;;;;;;8312352;28;20123;-89
2023/08/10 07:00:44;;;;;;;14.45;10.07;;;;;;;;;;8291142;28;20092;-88
2023/08/10 07:04:47;;;;;;;14.90;9.90;;;;;;;;;;8304364;28;20049;-87
2023/08/10 07:08:52;;;;;;;16.15;11.77;;;;;;;;;;8310207;28;20049;-87
2023/08/10 07:13:00;;;;;;;13.07;8.95;;;;;;;;;;8305133;28;20050;-88
2023/08/10 07:17:03;;;;;;;13.27;9.05;;;;;;;;;;8312069;28;20064;-88
2023/08/10 07:21:07;;;;;;;13.38;10.75;;;;;;;;;;8305380;28;20045;-88
2023/08/10 07:25:10;;;;;;;16.05;9.98;;;;;;;;;;8311848;28;20132;-87
2023/08/10 07:29:18;;;;;;;15.35;9.63;;;;;;;;;;8305551;28;20117;-88
2023/08/10 07:33:22;;;;;;;12.40;9.02;;;;;;;;;;8299810;28;20084;-87
2023/08/10 07:37:25;;;;;;;14.80;9.73;;;;;;;;;;8305222;28;20061;-87
2023/08/10 07:41:29;;;;;;;14.63;9.65;;;;;;;;;;8301826;28;20136;-88
2023/08/10 07:45:36;;;;;;;11.68;8.80;;;;;;;;;;8300349;28;20446;-89
2023/08/10 07:49:42;;;;;;;11.52;8.18;;;;;;;;;;8286784;28;20041;-89
2023/08/10 07:53:48;;;;;;;11.30;7.93;;;;;;;;;;8270564;28;20054;-89
2023/08/10 07:57:52;;;;;;;14.18;9.05;;;;;;;;;;8264882;28;20064;-89
2023/08/10 08:06:47;;;;;;;10.25;7.60;;;;;;;;;;8228839;28;20142;-89
2023/08/10 08:10:51;;;;;;;12.63;8.23;;;;;;;;;;8241708;28;20483;-88
2023/08/10 08:14:54;;;;;;;9.07;6.50;;;;;;;;;;8239639;28;20042;-88
2023/08/10 08:18:59;;;;;;;7.28;5.90;;;;;;;;;;8236587;28;20058;-87
2023/08/10 08:23:03;;;;;;;9.07;6.43;;;;;;;;;;8241419;28;20061;-87
2023/08/10 08:27:06;;;;;;;11.32;7.15;;;;;;;;;;8224913;28;20488;-88
2023/08/10 08:31:09;;;;;;;10.25;5.75;;;;;;;;;;8241735;28;20071;-87
2023/08/10 08:35:17;;;;;;;6.85;5.80;;;;;;;;;;8230444;28;20081;-89
2023/08/10 08:39:20;;;;;;;8.40;5.43;;;;;;;;;;8291249;23;20094;-89
2023/08/10 08:43:23;;;;;;;5.82;4.47;;;;;;;;;;8280812;28;20046;-88
2023/08/10 08:47:28;;;;;;;6.95;5.13;;;;;;;;;;8283290;28;20050;-88
2023/08/10 08:51:36;;;;;;;6.43;4.35;;;;;;;;;;8270574;28;20495;-87
2023/08/10 08:55:39;;;;;;;7.40;4.45;;;;;;;;;;8279733;28;20052;-87
2023/08/10 08:59:42;;;;;;;7.13;3.72;;;;;;;;;;8274882;28;20510;-87
2023/08/10 09:03:46;;;;;;;7.90;3.88;;;;;;;;;;8281354;28;20057;-88
2023/08/10 09:07:51;;;;;;;9.32;4.18;;;;;;;;;;8270133;28;20572;-88
2023/08/10 09:11:54;;;;;;;6.63;3.67;;;;;;;;;;8269698;28;20129;-88
2023/08/10 09:16:09;;;;;;;9.05;3.40;;;;;;;;;;8274795;28;20125;-89
2023/08/10 09:20:19;;;;;;;6.30;3.22;;;;;;;;;;8282385;28;20129;-87
2023/08/10 09:24:23;;;;;;;4.72;3.05;;;;;;;;;;8279783;28;20039;-88
2023/08/10 09:28:26;;;;;;;4.57;2.58;;;;;;;;;;8279826;28;20050;-87
2023/08/10 09:32:29;;;;;;;6.68;2.75;;;;;;;;;;8281116;28;20038;-89
2023/08/10 09:36:32;;;;;;;5.43;2.55;;;;;;;;;;8274119;28;20053;-88
2023/08/10 09:40:43;;;;;;;4.75;2.60;;;;;;;;;;8285342;28;20482;-88
2023/08/10 09:44:48;;;;;;;3.97;2.60;;;;;;;;;;8294508;28;20125;-89
2023/08/10 09:48:54;;;;;;;5.95;3.10;;;;;;;;;;8273280;28;20485;-87
2023/08/10 09:52:57;;;;;;;7.32;3.38;;;;;;;;;;8277611;28;20053;-87
2023/08/10 09:57:02;;;;;;;5.95;2.88;;;;;;;;;;8276175;28;20495;-89
2023/08/10 10:01:16;;;;;;;4.15;2.90;;;;;;;;;;8276317;28;20475;-88
2023/08/10 10:05:24;;;;;;;6.20;2.60;;;;;;;;;;8281893;28;20046;-88
2023/08/10 10:09:29;;;;;;;3.72;2.20;;;;;;;;;;8277961;28;20101;-89
2023/08/10 10:13:34;;;;;;;10.35;2.53;;;;;;;;;;8272877;28;20125;-89
2023/08/10 10:17:41;;;;;;;3.75;2.35;;;;;;;;;;8285222;28;20518;-87
2023/08/10 10:21:45;;;;;;;6.32;2.50;;;;;;;;;;8275685;28;20621;-88
2023/08/10 10:25:58;;;;;;;6.38;2.50;;;;;;;;;;8279313;28;20070;-87
2023/08/10 10:30:15;;;;;;;2.90;2.03;;;;;;;;;;8278908;28;20046;-88
2023/08/10 10:34:20;;;;;;;3.22;1.90;;;;;;;;;;8283858;28;20100;-89
2023/08/10 10:38:26;;;;;;;3.38;2.00;;;;;;;;;;8273475;28;20411;-89
2023/08/10 10:42:31;;;;;;;2.33;1.73;;;;;;;;;;8274030;28;20097;-87
2023/08/10 10:46:41;;;;;;;2.88;1.70;;;;;;;;;;8276781;28;20049;-88
2023/08/10 10:50:45;;;;;;;2.55;1.90;;;;;;;;;;8286307;28;20412;-89
2023/08/10 10:54:48;;;;;;;5.00;2.10;;;;;;;;;;8270794;28;20070;-88
2023/08/10 10:58:54;;;;;;;3.90;2.38;;;;;;;;;;8265381;28;20054;-89
2023/08/10 11:03:02;;;;;;;7.32;2.30;;;;;;;;;;8268580;28;20491;-88
2023/08/10 11:07:05;;;;;;;5.00;2.00;;;;;;;;;;8275158;28;20122;-88
2023/08/10 11:11:12;;;;;;;4.63;2.22;;;;;;;;;;8289647;28;20093;-88
2023/08/10 11:15:16;;;;;;;5.28;1.75;;;;;;;;;;8270530;28;20477;-88
2023/08/10 11:19:22;;;;;;;5.53;2.25;;;;;;;;;;8269280;28;20145;-89
2023/08/10 11:23:28;;;;;;;2.92;1.98;;;;;;;;;;8282696;28;20049;-88
2023/08/10 11:27:31;;;;;;;4.75;2.10;;;;;;;;;;8275218;28;20053;-88
2023/08/10 11:31:40;;;;;;;5.00;1.90;;;;;;;;;;8286550;28;20069;-89
2023/08/10 11:35:50;;;;;;;4.38;2.25;;;;;;;;;;8265961;28;20041;-88
2023/08/10 11:39:53;;;;;;;4.95;1.95;;;;;;;;;;8275886;28;20057;-88
2023/08/10 11:43:57;;;;;;;2.47;1.67;;;;;;;;;;8279609;28;20765;-87
2023/08/10 11:48:00;;;;;;;2.35;1.80;;;;;;;;;;8278239;28;20073;-88
2023/08/10 11:52:14;;;;;;;3.42;1.80;;;;;;;;;;8284898;28;20069;-87
2023/08/10 11:56:23;;;;;;;3.03;1.90;;;;;;;;;;8266448;28;20517;-87
2023/08/10 12:00:30;;;;;;;3.15;1.75;;;;;;;;;;8275044;28;20038;-88
2023/08/10 12:04:33;;;;;;;4.93;2.13;;;;;;;;;;8263335;28;20395;-87
2023/08/10 12:08:41;;;;;;;4.03;2.00;;;;;;;;;;8289279;28;20049;-88
2023/08/10 12:12:47;;;;;;;4.30;1.88;;;;;;;;;;8295129;28;20050;-88
2023/08/10 12:16:53;;;;;;;3.50;1.80;;;;;;;;;;8279362;28;20373;-88
2023/08/10 12:21:06;;;;;;;2.63;1.75;;;;;;;;;;8290815;28;20046;-88
2023/08/10 12:25:14;;;;;;;3.50;1.95;;;;;;;;;;8268608;28;20153;-88
2023/08/10 12:29:18;;;;;;;1.67;1.52;;;;;;;;;;8294760;28;20050;-88
2023/08/10 12:33:24;;;;;;;4.25;1.90;;;;;;;;;;8282024;28;20121;-87
2023/08/10 12:37:27;;;;;;;2.40;1.75;;;;;;;;;;8276583;28;20059;-88
2023/08/10 12:41:32;;;;;;;2.90;1.90;;;;;;;;;;8280352;28;20073;-88
2023/08/10 12:45:34;;;;;;;2.42;1.60;;;;;;;;;;8278631;28;20069;-87
2023/08/10 12:49:38;;;;;;;3.90;2.15;;;;;;;;;;8281288;28;20129;-88
2023/08/10 12:53:42;;;;;;;3.70;1.77;;;;;;;;;;8275327;28;20053;-88
2023/08/10 12:57:59;;;;;;;4.15;1.95;;;;;;;;;;8282459;28;20054;-87
2023/08/10 13:02:10;;;;;;;2.00;1.65;;;;;;;;;;8278728;28;20047;-88
2023/08/10 13:06:13;;;;;;;4.97;1.80;;;;;;;;;;8282064;28;20044;-88
2023/08/10 13:10:16;;;;;;;5.53;1.80;;;;;;;;;;8283954;28;20086;-88
2023/08/10 13:14:20;;;;;;;4.80;1.98;;;;;;;;;;8287849;28;20042;-88
2023/08/10 13:18:23;;;;;;;3.78;1.95;;;;;;;;;;8275653;28;20129;-88
2023/08/10 13:22:26;;;;;;;4.95;1.73;;;;;;;;;;8284188;28;20058;-88
2023/08/10 13:26:29;;;;;;;2.72;1.75;;;;;;;;;;8279011;28;20462;-87
2023/08/10 13:30:34;;;;;;;4.10;1.90;;;;;;;;;;8268367;28;20050;-87
2023/08/10 13:34:38;;;;;;;3.97;1.90;;;;;;;;;;8282695;28;20121;-87
2023/08/10 13:38:41;;;;;;;6.43;2.00;;;;;;;;;;8280997;28;20504;-88
2023/08/10 13:42:45;;;;;;;5.85;1.80;;;;;;;;;;8289840;28;20068;-87
2023/08/10 13:46:52;;;;;;;2.78;1.77;;;;;;;;;;8283220;28;20058;-89
2023/08/10 13:50:56;;;;;;;3.35;1.75;;;;;;;;;;8287189;28;20058;-88
2023/08/10 13:55:02;;;;;;;2.58;1.60;;;;;;;;;;8272475;28;20057;-88
2023/08/10 13:59:05;;;;;;;4.80;1.58;;;;;;;;;;8290405;28;20547;-88
2023/08/10 14:03:10;;;;;;;4.32;1.70;;;;;;;;;;8274492;28;20085;-88
2023/08/10 14:07:14;;;;;;;5.57;1.80;;;;;;;;;;8269325;28;20050;-89
2023/08/10 14:11:22;;;;;;;2.60;1.60;;;;;;;;;;8288862;28;20050;-89
2023/08/10 14:15:26;;;;;;;3.35;1.85;;;;;;;;;;8279579;28;20061;-88
2023/08/10 14:19:31;;;;;;;4.30;1.90;;;;;;;;;;8291034;28;20046;-88
2023/08/10 14:23:35;;;;;;;3.65;1.63;;;;;;;;;;8272192;28;20125;-89
2023/08/10 14:27:38;;;;;;;3.85;1.80;;;;;;;;;;8308024;28;20050;-89
2023/08/10 14:31:42;;;;;;;3.05;1.70;;;;;;;;;;8312395;28;20054;-88
2023/08/10 14:35:46;;;;;;;3.42;1.83;;;;;;;;;;8300047;28;20042;-88
2023/08/10 14:39:49;;;;;;;4.20;1.73;;;;;;;;;;8310449;28;20065;-89
2023/08/10 14:43:52;;;;;;;2.95;1.63;;;;;;;;;;8300169;28;20037;-88
2023/08/10 14:48:03;;;;;;;1.92;1.67;;;;;;;;;;8315712;28;20479;-88
2023/08/10 14:52:10;;;;;;;3.17;1.80;;;;;;;;;;8310997;28;20062;-88
2023/08/10 14:56:13;;;;;;;3.10;1.40;;;;;;;;;;8289976;28;20089;-88
2023/08/10 15:00:18;;;;;;;3.50;1.77;;;;;;;;;;8297118;28;20058;-89
2023/08/10 15:04:22;;;;;;;4.55;1.92;;;;;;;;;;8290332;28;20053;-89
2023/08/10 15:08:29;;;;;;;3.30;1.73;;;;;;;;;;8301716;28;20069;-88
2023/08/10 15:12:33;;;;;;;16.42;8.38;;;;;;;;;;8300652;28;20052;-88
2023/08/10 15:16:40;;;;;;;6.47;2.85;;;;;;;;;;8298749;28;20080;-88
2023/08/10 15:20:46;;;;;;;15.63;8.10;;;;;;;;;;8288882;28;20058;-88
2023/08/10 15:24:53;;;;;;;3.58;2.20;;;;;;;;;;8300864;28;20052;-88
2023/08/10 15:28:56;;;;;;;3.97;1.48;;;;;;;;;;8295628;28;20070;-88
2023/08/10 15:32:59;;;;;;;2.00;1.40;;;;;;;;;;8280199;28;20494;-89
2023/08/10 15:37:02;;;;;;;2.45;1.60;;;;;;;;;;8266025;28;20451;-89
2023/08/10 15:41:07;;;;;;;4.00;1.75;;;;;;;;;;8267258;28;20053;-89
2023/08/10 15:45:11;;;;;;;3.42;1.88;;;;;;;;;;8280567;28;20050;-89
2023/08/10 15:49:14;;;;;;;5.13;2.03;;;;;;;;;;8265514;28;20133;-89
2023/08/10 15:53:17;;;;;;;4.35;2.20;;;;;;;;;;8273625;28;20050;-87
2023/08/10 15:57:23;;;;;;;2.65;1.90;;;;;;;;;;8283664;28;20050;-89
2023/08/10 16:01:26;;;;;;;6.00;2.20;;;;;;;;;;8274228;28;20080;-89
2023/08/10 16:05:29;;;;;;;5.75;2.30;;;;;;;;;;8280185;28;20125;-88
2023/08/10 16:09:33;;;;;;;4.85;2.50;;;;;;;;;;8291707;28;20068;-88
2023/08/10 16:13:40;;;;;;;4.47;2.00;;;;;;;;;;8297024;28;20051;-88
2023/08/10 16:17:44;;;;;;;5.32;1.98;;;;;;;;;;8295547;28;20479;-87
2023/08/10 16:21:47;;;;;;;4.85;2.00;;;;;;;;;;8278871;28;20086;-88
2023/08/10 16:25:51;;;;;;;5.93;2.00;;;;;;;;;;8290756;28;20149;-89
2023/08/10 16:29:57;;;;;;;11.13;2.40;;;;;;;;;;8282681;28;20058;-88
2023/08/10 16:34:00;;;;;;;5.75;2.10;;;;;;;;;;8277516;28;20085;-87
2023/08/10 16:38:03;;;;;;;6.00;2.78;;;;;;;;;;8272617;28;20068;-89
2023/08/10 16:42:07;;;;;;;17.00;4.45;;;;;;;;;;8384208;23;20108;-88
2023/08/10 16:46:12;;;;;;;7.50;2.95;;;;;;;;;;8371009;23;20070;-88
2023/08/10 16:50:16;;;;;;;9.65;3.10;;;;;;;;;;8275781;28;20052;-88
2023/08/10 17:27:25;;;;;;;7.13;2.53;;;;;;;;;;8212366;28;20049;-89
2023/08/10 17:36:59;;;;;;;5.80;2.95;;;;;;;;;;8274372;28;20050;-88
2023/08/10 17:41:04;;;;;;;4.82;2.78;;;;;;;;;;8285312;28;20502;-89
2023/08/10 17:45:11;;;;;;;9.15;3.22;;;;;;;;;;8272787;28;20136;-88
2023/08/10 17:49:15;;;;;;;8.63;3.30;;;;;;;;;;8276380;28;20054;-88
2023/08/10 17:53:19;;;;;;;12.10;3.55;;;;;;;;;;8263965;28;20054;-88
2023/08/10 17:57:23;;;;;;;4.88;3.00;;;;;;;;;;8278232;28;20454;-85
2023/08/10 18:01:32;;;;;;;8.27;3.60;;;;;;;;;;8271119;28;20093;-87
2023/08/10 18:05:36;;;;;;;43.65;16.38;;;;;;;;;;8278220;28;20076;-87
2023/08/10 18:09:39;;;;;;;13.48;5.28;;;;;;;;;;8295589;28;20461;-86
2023/08/10 18:13:43;;;;;;;10.52;5.28;;;;;;;;;;8304964;28;20045;-86
2023/08/10 18:17:48;;;;;;;13.50;6.32;;;;;;;;;;8300627;28;20054;-88
2023/08/10 18:21:52;;;;;;;10.43;6.25;;;;;;;;;;8281683;28;20045;-88
2023/08/10 18:26:05;;;;;;;9.45;5.05;;;;;;;;;;8278570;28;20062;-88
2023/08/10 18:30:10;;;;;;;11.18;4.70;;;;;;;;;;8262266;28;20058;-89
2023/08/10 18:34:20;;;;;;;9.45;4.78;;;;;;;;;;8268539;28;20049;-89
2023/08/10 18:38:31;;;;;;;7.22;5.10;;;;;;;;;;8275581;28;20056;-89
2023/08/10 18:42:36;;;;;;;15.80;5.40;;;;;;;;;;8280037;28;20053;-90
2023/08/10 18:46:40;;;;;;;12.68;6.50;;;;;;;;;;8280426;28;20406;-88
2023/08/10 18:50:46;;;;;;;12.75;8.18;;;;;;;;;;8271686;28;20053;-90
2023/08/10 18:54:52;;;;;;;15.25;7.85;;;;;;;;;;8270788;28;20410;-92
2023/08/10 18:58:56;;;;;;;12.43;6.55;;;;;;;;;;8271006;28;20449;-91
2023/08/10 19:03:00;;;;;;;10.05;6.07;;;;;;;;;;8280634;28;20084;-89
2023/08/10 19:07:10;;;;;;;9.25;5.88;;;;;;;;;;8278730;28;20478;-89
2023/08/10 19:11:15;;;;;;;10.77;6.88;;;;;;;;;;8301139;28;20137;-90
2023/08/10 19:15:21;;;;;;;13.00;7.75;;;;;;;;;;8275609;28;20136;-89
2023/08/10 19:19:25;;;;;;;14.20;6.97;;;;;;;;;;8265127;28;20053;-89
2023/08/10 19:23:33;;;;;;;12.48;6.70;;;;;;;;;;8255237;28;20058;-89
2023/08/10 19:27:37;;;;;;;12.68;6.45;;;;;;;;;;8270882;28;20041;-90
2023/08/10 19:31:42;;;;;;;12.45;6.22;;;;;;;;;;8264695;28;20053;-91
2023/08/10 19:35:47;;;;;;;10.02;5.30;;;;;;;;;;8265049;28;20054;-90
2023/08/10 19:39:56;;;;;;;8.45;4.85;;;;;;;;;;8404564;23;20061;-91
2023/08/10 19:44:00;;;;;;;8.18;4.50;;;;;;;;;;8316960;28;20078;-90
2023/08/10 19:48:06;;;;;;;8.15;4.68;;;;;;;;;;8314177;28;20067;-89
2023/08/10 19:52:11;;;;;;;6.68;4.20;;;;;;;;;;8334209;28;20110;-89
2023/08/10 19:56:20;;;;;;;10.32;4.97;;;;;;;;;;8329958;28;20073;-90
2023/08/10 20:00:26;;;;;;;9.35;4.22;;;;;;;;;;8312275;28;20061;-88
2023/08/10 20:04:30;;;;;;;11.10;4.57;;;;;;;;;;8309677;28;20049;-90
2023/08/10 20:08:35;;;;;;;6.72;4.13;;;;;;;;;;8306082;28;20449;-89
2023/08/10 20:12:42;;;;;;;9.10;4.50;;;;;;;;;;8312141;28;20060;-89
2023/08/10 20:16:47;;;;;;;6.25;4.50;;;;;;;;;;8308671;28;20107;-88
2023/08/10 20:20:51;;;;;;;10.88;5.22;;;;;;;;;;8300797;28;20370;-89
2023/08/10 20:24:56;;;;;;;10.90;5.50;;;;;;;;;;8312270;28;20061;-88
2023/08/10 20:29:03;;;;;;;9.32;5.30;;;;;;;;;;8312231;28;20069;-88
2023/08/10 20:33:09;;;;;;;9.95;6.15;;;;;;;;;;8311116;28;20053;-88
2023/08/10 20:37:13;;;;;;;10.30;5.90;;;;;;;;;;8307078;28;20091;-88
2023/08/10 20:41:18;;;;;;;10.43;6.55;;;;;;;;;;8312345;28;20057;-88
2023/08/10 20:45:25;;;;;;;11.68;6.78;;;;;;;;;;8304906;28;20061;-88
2023/08/10 20:49:29;;;;;;;12.52;7.70;;;;;;;;;;8312873;28;20387;-86
2023/08/10 20:53:33;;;;;;;12.15;6.72;;;;;;;;;;8300081;28;20068;-89
2023/08/10 20:57:38;;;;;;;12.90;7.38;;;;;;;;;;8315614;28;20135;-89
2023/08/10 21:01:44;;;;;;;10.43;6.45;;;;;;;;;;8317335;28;20147;-88
2023/08/10 21:05:48;;;;;;;12.85;7.40;;;;;;;;;;8299556;28;20497;-89
2023/08/10 21:09:51;;;;;;;11.77;7.25;;;;;;;;;;8317685;28;20061;-89
2023/08/10 21:13:56;;;;;;;15.02;7.00;;;;;;;;;;8312076;28;20052;-88
2023/08/10 21:18:05;;;;;;;15.82;8.40;;;;;;;;;;8312366;28;20045;-89
2023/08/10 21:22:08;;;;;;;9.93;7.22;;;;;;;;;;8308933;28;20053;-88
2023/08/10 21:26:12;;;;;;;13.32;6.93;;;;;;;;;;8316103;28;20061;-89
2023/08/10 21:30:15;;;;;;;11.63;6.97;;;;;;;;;;8314552;28;20054;-89
2023/08/10 21:34:20;;;;;;;12.27;6.07;;;;;;;;;;8301142;28;20056;-88
2023/08/10 23:02:02;;;;;;;11.45;6.97;;;;;;;;;;8156869;29;20114;-89
2023/08/10 23:06:07;;;;;;;12.45;7.68;;;;;;;;;;8156478;28;20580;-94
2023/08/10 23:10:12;;;;;;;11.55;7.55;;;;;;;;;;8296425;28;20045;-89
2023/08/10 23:14:16;;;;;;;13.35;7.53;;;;;;;;;;8290378;28;20121;-88
2023/08/10 23:18:19;;;;;;;15.45;8.40;;;;;;;;;;8296710;28;20403;-88
2023/08/10 23:22:48;;;;;;;13.02;8.45;;;;;;;;;;8185268;29;20196;-89
2023/08/10 23:26:56;;;;;;;12.35;8.20;;;;;;;;;;8247834;28;20073;-89
2023/08/10 23:31:00;;;;;;;16.25;8.40;;;;;;;;;;8281314;28;20046;-89
2023/08/10 23:35:04;;;;;;;16.90;9.23;;;;;;;;;;8268654;28;20050;-90
2023/08/10 23:39:07;;;;;;;12.77;7.75;;;;;;;;;;8273923;28;20077;-88
2023/08/10 23:43:17;;;;;;;11.80;8.02;;;;;;;;;;8279870;28;20054;-88
2023/08/10 23:47:20;;;;;;;11.68;7.60;;;;;;;;;;8265622;28;20065;-88
2023/08/10 23:51:24;;;;;;;12.30;7.57;;;;;;;;;;8275198;28;20109;-89
2023/08/10 23:55:28;;;;;;;16.65;8.18;;;;;;;;;;8276785;28;20066;-89
2023/08/10 23:59:35;;;;;;;14.45;7.47;;;;;;;;;;8274631;28;20069;-89
